createdAt,value
2018-09-17T12:25:11.712Z,15320.00
2018-09-17T12:28:14.765Z,15364.00
2018-09-17T12:31:18.099Z,16424.00
2018-09-17T12:32:49.474Z,15236.00
2018-09-17T12:35:52.613Z,12856.00
2018-09-17T12:37:24.184Z,13576.00
2018-09-17T12:38:55.761Z,15468.00
2018-09-17T12:40:27.327Z,15676.00
2018-09-17T12:43:31.102Z,13000.00
2018-09-17T12:45:02.043Z,13556.00
2018-09-17T12:46:33.615Z,15188.00
2018-09-17T12:48:05.235Z,18432.00
2018-09-17T12:49:36.801Z,21216.00
2018-09-17T12:51:08.437Z,22272.00
2018-09-17T12:52:39.899Z,21920.00
2018-09-17T12:55:43.044Z,21184.00
2018-09-17T12:57:14.844Z,20288.00
2018-09-17T12:58:46.247Z,19776.00
2018-09-17T13:01:49.431Z,16548.00
2018-09-17T13:03:20.931Z,15992.00
2018-09-17T13:04:52.677Z,16524.00
2018-09-17T13:06:24.052Z,17952.00
2018-09-17T13:07:55.619Z,17596.00
2018-09-17T13:09:27.394Z,16900.00
2018-09-17T13:10:58.835Z,16756.00
2018-09-17T13:12:30.536Z,16452.00
2018-09-17T13:14:02.210Z,16124.00
2018-09-17T13:15:34.085Z,16228.00
2018-09-17T13:17:05.050Z,17032.00
2018-09-17T13:18:36.677Z,18208.00
2018-09-17T13:20:08.495Z,18880.00
2018-09-17T13:21:39.772Z,19168.00
2018-09-17T13:23:11.335Z,18944.00
2018-09-17T13:24:42.979Z,18784.00
2018-09-17T13:26:14.476Z,18464.00
2018-09-17T13:27:46.252Z,18112.00
2018-09-17T13:30:49.188Z,18304.00
2018-09-17T13:32:21.064Z,19168.00
2018-09-17T13:35:25.159Z,22528.00
2018-09-17T13:36:56.183Z,24320.00
2018-09-17T13:38:28.519Z,25568.00
2018-09-17T13:39:59.393Z,26784.00
2018-09-17T13:41:31.619Z,27680.00
2018-09-17T13:43:04.095Z,28448.00
2018-09-17T13:44:35.197Z,29408.00
2018-09-17T13:47:38.462Z,31904.00
2018-09-17T13:49:09.365Z,33632.00
2018-09-17T13:50:40.596Z,35008.00
2018-09-17T13:52:13.668Z,35648.00
2018-09-17T13:53:46.011Z,36000.00
2018-09-17T13:55:16.778Z,36096.00
2018-09-17T13:56:48.144Z,36288.00
2018-09-17T13:58:20.510Z,36128.00
2018-09-17T13:59:51.423Z,35488.00
2018-09-17T14:01:25.155Z,35296.00
2018-09-17T14:02:52.750Z,35744.00
2018-09-17T14:04:26.768Z,35616.00
2018-09-17T14:05:57.824Z,32192.00
2018-09-17T14:07:28.628Z,35072.00
2018-09-17T14:08:59.813Z,33600.00
2018-09-17T14:10:32.457Z,34784.00
2018-09-17T14:12:03.952Z,34880.00
2018-09-17T14:13:34.156Z,34304.00
2018-09-17T14:15:06.168Z,31904.00
2018-09-17T14:16:37.672Z,28992.00
2018-09-17T14:18:08.971Z,26464.00
2018-09-17T14:19:41.065Z,24352.00
2018-09-17T14:21:11.187Z,22496.00
2018-09-17T14:22:42.677Z,20896.00
2018-09-17T14:24:14.487Z,19680.00
2018-09-17T14:25:46.041Z,19040.00
2018-09-17T14:27:17.436Z,18784.00
2018-09-17T14:28:51.755Z,18656.00
2018-09-17T14:30:21.773Z,18912.00
2018-09-17T14:31:54.344Z,19648.00
2018-09-17T14:33:25.794Z,20448.00
2018-09-17T14:34:56.048Z,21312.00
2018-09-17T14:36:27.111Z,22176.00
2018-09-17T14:37:59.778Z,23232.00
2018-09-17T14:39:30.845Z,24608.00
2018-09-17T14:41:03.205Z,26464.00
2018-09-17T14:42:34.249Z,28512.00
2018-09-17T14:44:06.181Z,30432.00
2018-09-17T14:45:36.622Z,32064.00
2018-09-17T14:47:09.764Z,33472.00
2018-09-17T14:48:40.903Z,34880.00
2018-09-17T14:50:11.909Z,36576.00
2018-09-17T14:51:44.604Z,38528.00
2018-09-17T14:53:15.388Z,40096.00
2018-09-17T14:54:47.163Z,40960.00
2018-09-17T14:56:18.780Z,40832.00
2018-09-17T14:57:50.387Z,42304.00
2018-09-17T14:59:20.706Z,45472.00
2018-09-17T15:00:52.765Z,46592.00
2018-09-17T15:02:23.810Z,47520.00
2018-09-17T15:03:55.191Z,44192.00
2018-09-17T15:05:27.073Z,40832.00
2018-09-17T15:06:58.652Z,36480.00
2018-09-17T15:08:29.913Z,32576.00
2018-09-17T15:10:01.559Z,29024.00
2018-09-17T15:11:33.077Z,26528.00
2018-09-17T15:14:36.208Z,25280.00
2018-09-17T15:16:07.808Z,26080.00
2018-09-17T15:17:39.399Z,27520.00
2018-09-17T15:19:10.932Z,29344.00
2018-09-17T15:20:42.808Z,31040.00
2018-09-17T15:22:14.200Z,32928.00
2018-09-17T15:25:17.344Z,32256.00
2018-09-17T15:26:48.909Z,28544.00
2018-09-17T15:28:21.015Z,30528.00
2018-09-17T15:29:51.952Z,44640.00
2018-09-17T15:31:23.713Z,47936.00
2018-09-17T15:32:55.158Z,51808.00
2018-09-17T15:34:26.862Z,58304.00
2018-09-17T15:35:58.299Z,58432.00
2018-09-17T15:37:30.560Z,55712.00
2018-09-17T15:39:01.428Z,58368.00
2018-09-17T15:40:33.608Z,60032.00
2018-09-17T15:42:04.797Z,71744.00
2018-09-17T15:43:36.311Z,64128.00
2018-09-17T15:45:07.853Z,47904.00
2018-09-17T15:46:39.368Z,42912.00
2018-09-17T15:48:10.869Z,42240.00
2018-09-17T15:49:43.020Z,42528.00
2018-09-17T15:51:14.056Z,42336.00
2018-09-17T15:52:45.639Z,41280.00
2018-09-17T15:54:17.182Z,38496.00
2018-09-17T15:55:48.826Z,34848.00
2018-09-17T15:57:20.408Z,37248.00
2018-09-17T15:58:51.912Z,32416.00
2018-09-17T16:00:23.521Z,21376.00
2018-09-17T16:01:55.496Z,25664.00
2018-09-17T16:03:26.674Z,25216.00
2018-09-17T16:04:58.363Z,27648.00
2018-09-17T16:08:01.380Z,18080.00
2018-09-17T16:09:32.954Z,9136.00
2018-09-17T16:11:04.531Z,8488.00
2018-09-17T16:12:36.140Z,6504.00
2018-09-17T16:15:39.564Z,7220.00
2018-09-17T16:17:10.840Z,8684.00
2018-09-17T16:18:42.411Z,10788.00
2018-09-17T16:20:13.992Z,20384.00
2018-09-17T16:21:45.682Z,31744.00
2018-09-17T16:23:17.137Z,25728.00
2018-09-17T16:24:48.712Z,28512.00
2018-09-17T16:26:20.839Z,31232.00
2018-09-17T16:27:51.864Z,26816.00
2018-09-17T16:30:55.016Z,15040.00
2018-09-17T16:32:26.592Z,15500.00
2018-09-17T16:33:58.168Z,19232.00
2018-09-17T16:38:33.403Z,9340.00
2018-09-17T16:40:04.775Z,10772.00
2018-09-17T16:41:36.107Z,9108.00
2018-09-17T16:43:07.620Z,8624.00
2018-09-17T16:44:39.398Z,10316.00
2018-09-17T16:46:10.769Z,14836.00
2018-09-17T16:47:42.343Z,18176.00
2018-09-17T16:49:14.072Z,13336.00
2018-09-17T16:50:45.496Z,11524.00
2018-09-17T16:52:17.102Z,13164.00
2018-09-17T16:53:49.241Z,16112.00
2018-09-17T16:55:20.417Z,20096.00
2018-09-17T16:56:51.890Z,30688.00
2018-09-17T16:58:23.698Z,21632.00
2018-09-17T16:59:55.195Z,21216.00
2018-09-17T17:01:26.542Z,25536.00
2018-09-17T17:04:29.660Z,42304.00
2018-09-17T17:06:01.688Z,46784.00
2018-09-17T17:07:32.810Z,37600.00
2018-09-17T17:09:04.387Z,29632.00
2018-09-17T17:10:35.962Z,37536.00
2018-09-17T17:12:07.540Z,34208.00
2018-09-17T17:15:10.724Z,34848.00
2018-09-17T17:16:42.432Z,27232.00
2018-09-17T17:18:14.055Z,29984.00
2018-09-17T17:19:45.419Z,24896.00
2018-09-17T17:21:17.296Z,35424.00
2018-09-17T17:22:48.569Z,34752.00
2018-09-17T17:24:20.584Z,50368.00
2018-09-17T17:27:23.501Z,21824.00
2018-09-17T17:28:54.877Z,37312.00
2018-09-17T17:30:26.595Z,39968.00
2018-09-17T17:31:59.390Z,39520.00
2018-09-17T17:33:32.991Z,32960.00
2018-09-17T17:35:05.174Z,45408.00
2018-09-17T17:36:33.977Z,48736.00
2018-09-17T17:38:06.040Z,50048.00
2018-09-17T17:39:38.136Z,60608.00
2018-09-17T17:41:09.360Z,54016.00
2018-09-17T17:42:44.414Z,45952.00
2018-09-17T17:44:14.211Z,38400.00
2018-09-17T17:45:46.056Z,47008.00
2018-09-17T17:47:16.344Z,53216.00
2018-09-17T17:48:47.385Z,44096.00
2018-09-17T17:50:19.618Z,44032.00
2018-09-17T17:51:51.257Z,45184.00
2018-09-17T17:53:22.805Z,38560.00
2018-09-17T17:54:53.985Z,37824.00
2018-09-17T17:56:26.935Z,37664.00
2018-09-17T17:57:58.146Z,36384.00
2018-09-17T17:59:29.501Z,40128.00
2018-09-17T18:00:59.571Z,39392.00
2018-09-17T18:02:31.786Z,36448.00
2018-09-17T18:04:04.030Z,33664.00
2018-09-17T18:05:35.209Z,33376.00
2018-09-17T18:07:06.681Z,39872.00
2018-09-17T18:08:38.840Z,38432.00
2018-09-17T18:10:09.675Z,34336.00
2018-09-17T18:11:41.993Z,31552.00
2018-09-17T18:13:14.305Z,28864.00
2018-09-17T18:14:43.552Z,24672.00
2018-09-17T18:16:16.826Z,27584.00
2018-09-17T18:17:48.240Z,25728.00
2018-09-17T18:19:20.181Z,24512.00
2018-09-17T18:20:51.376Z,24512.00
2018-09-17T18:22:22.120Z,23968.00
2018-09-17T18:23:53.760Z,23776.00
2018-09-17T18:25:25.164Z,24416.00
2018-09-17T18:26:57.837Z,21216.00
2018-09-17T18:28:28.699Z,22144.00
2018-09-17T18:30:01.699Z,24320.00
2018-09-17T18:31:33.535Z,21728.00
2018-09-17T18:33:05.150Z,23360.00
2018-09-17T18:34:37.279Z,23296.00
2018-09-17T18:37:37.910Z,22912.00
2018-09-17T18:39:10.144Z,24448.00
2018-09-17T18:40:42.386Z,21312.00
2018-09-17T18:42:11.966Z,19488.00
2018-09-17T18:43:44.120Z,18624.00
2018-09-17T18:45:15.884Z,18304.00
2018-09-17T18:46:46.876Z,17824.00
2018-09-17T18:48:18.221Z,20736.00
2018-09-17T18:49:51.173Z,19584.00
2018-09-17T18:51:24.571Z,18048.00
2018-09-17T18:52:53.374Z,19904.00
2018-09-17T18:54:25.119Z,20896.00
2018-09-17T18:55:56.058Z,20704.00
2018-09-17T18:57:27.490Z,24096.00
2018-09-17T18:58:59.185Z,22720.00
2018-09-17T19:00:31.171Z,21696.00
2018-09-17T19:02:02.293Z,21088.00
2018-09-17T19:03:33.695Z,18400.00
2018-09-17T19:05:05.465Z,14728.00
2018-09-17T19:06:37.292Z,14004.00
2018-09-17T19:08:08.382Z,16516.00
2018-09-17T19:09:40.169Z,15544.00
2018-09-17T19:12:43.313Z,15420.00
2018-09-17T19:14:15.371Z,16600.00
2018-09-17T19:15:46.548Z,18208.00
2018-09-17T19:17:18.290Z,17176.00
2018-09-17T19:18:51.148Z,15372.00
2018-09-17T19:20:21.932Z,13420.00
2018-09-17T19:21:54.217Z,11456.00
2018-09-17T19:23:25.580Z,11148.00
2018-09-17T19:24:56.715Z,9792.00
2018-09-17T19:26:28.406Z,7996.00
2018-09-17T19:28:00.216Z,9000.00
2018-09-17T19:29:31.211Z,7792.00
2018-09-17T19:31:03.193Z,6132.00
2018-09-17T19:32:34.720Z,4668.00
2018-09-17T19:34:07.267Z,4316.00
2018-09-17T19:35:37.430Z,3624.00
2018-09-17T19:37:09.580Z,4360.00
2018-09-17T19:38:41.033Z,3532.00
2018-09-17T19:40:12.762Z,3288.00
2018-09-17T19:41:43.632Z,3108.00
2018-09-17T19:43:15.611Z,2816.00
2018-09-17T19:44:47.970Z,3112.00
2018-09-17T19:46:19.261Z,2868.00
2018-09-17T19:47:50.480Z,2696.00
2018-09-17T19:49:21.927Z,2488.00
2018-09-17T19:50:53.697Z,2856.00
2018-09-17T19:52:24.840Z,2628.00
2018-09-17T19:53:57.350Z,2612.00
2018-09-17T19:55:28.232Z,2344.00
2018-09-17T19:57:00.028Z,2384.00
2018-09-17T19:58:31.100Z,2272.00
2018-09-17T20:00:02.647Z,1968.00
2018-09-17T20:01:34.437Z,1916.00
2018-09-17T20:03:06.194Z,1844.00
2018-09-17T20:04:37.286Z,2056.00
2018-09-17T20:06:08.772Z,2232.00
2018-09-17T20:07:40.885Z,2316.00
2018-09-17T20:09:12.153Z,2996.00
2018-09-17T20:10:43.299Z,3436.00
2018-09-17T20:12:16.039Z,2756.00
2018-09-17T20:13:47.340Z,2064.00
2018-09-17T20:15:18.421Z,2432.00
2018-09-17T20:16:50.386Z,2976.00
2018-09-17T20:18:21.575Z,2420.00
2018-09-17T20:19:53.573Z,2268.00
2018-09-17T20:21:24.891Z,2196.00
2018-09-17T20:22:56.771Z,1488.00
2018-09-17T20:24:28.576Z,1232.00
2018-09-17T20:26:01.288Z,1160.00
2018-09-17T20:27:31.970Z,1204.00
2018-09-17T20:29:04.484Z,872.00
2018-09-17T20:30:33.947Z,716.00
2018-09-17T20:32:06.526Z,748.00
2018-09-17T20:33:37.533Z,608.00
2018-09-17T20:35:08.994Z,872.00
2018-09-17T20:36:40.775Z,632.00
2018-09-17T20:38:13.026Z,572.00
2018-09-17T20:39:44.126Z,480.00
2018-09-17T20:41:15.857Z,388.00
2018-09-17T20:42:47.271Z,480.00
2018-09-17T20:44:18.765Z,444.00
2018-09-17T20:45:50.826Z,356.00
2018-09-17T20:47:22.042Z,360.00
2018-09-17T20:48:53.684Z,244.00
2018-09-17T20:50:24.728Z,200.00
2018-09-17T20:51:56.385Z,196.00
2018-09-17T20:53:28.272Z,204.00
2018-09-17T20:54:59.866Z,124.00
2018-09-17T20:56:31.329Z,100.00
2018-09-17T20:58:02.879Z,88.00
2018-09-17T20:59:34.388Z,60.00
2018-09-17T21:01:07.529Z,48.00
2018-09-17T21:02:37.656Z,36.00
2018-09-17T21:04:08.908Z,28.00
2018-09-17T21:05:41.317Z,20.00
2018-09-17T21:07:13.115Z,16.00
2018-09-17T21:08:45.824Z,16.00
2018-09-17T21:10:14.129Z,12.00
2018-09-17T21:11:44.870Z,8.00
2018-09-17T21:13:16.553Z,4.00
2018-09-17T21:14:48.080Z,4.00
2018-09-17T21:16:20.046Z,0.00
2018-09-17T21:17:51.206Z,4.00
2018-09-17T21:19:22.848Z,4.00
2018-09-17T21:20:54.889Z,0.00
2018-09-17T21:22:25.869Z,0.00
2018-09-17T21:23:57.831Z,0.00
2018-09-17T21:25:29.150Z,0.00
2018-09-17T21:27:00.712Z,0.00
2018-09-17T21:28:32.204Z,0.00
2018-09-17T21:30:03.889Z,0.00
2018-09-17T21:31:35.470Z,0.00
2018-09-17T21:33:06.982Z,0.00
2018-09-17T21:34:38.644Z,0.00
2018-09-17T21:36:10.920Z,0.00
2018-09-17T21:37:41.858Z,0.00
2018-09-17T21:39:13.164Z,0.00
2018-09-17T21:40:44.791Z,0.00
2018-09-17T21:42:16.407Z,0.00
2018-09-17T21:43:48.019Z,0.00
2018-09-17T21:45:19.660Z,0.00
2018-09-17T21:46:51.786Z,0.00
2018-09-17T21:48:22.607Z,0.00
2018-09-17T21:49:54.495Z,0.00
2018-09-17T21:51:25.875Z,0.00
2018-09-17T21:52:57.585Z,0.00
2018-09-17T21:54:28.902Z,0.00
2018-09-17T21:56:00.465Z,0.00
2018-09-17T21:57:32.355Z,0.00
2018-09-17T21:59:03.680Z,0.00
2018-09-17T22:00:35.275Z,0.00
2018-09-17T22:02:07.056Z,0.00
2018-09-17T22:03:38.417Z,0.00
2018-09-17T22:05:09.979Z,0.00
2018-09-17T22:06:41.673Z,0.00
2018-09-17T22:08:13.046Z,0.00
2018-09-17T22:11:16.467Z,0.00
2018-09-17T22:12:47.976Z,0.00
2018-09-17T22:14:19.340Z,0.00
2018-09-17T22:15:50.995Z,0.00
2018-09-17T22:17:22.669Z,0.00
2018-09-17T22:20:25.845Z,0.00
2018-09-17T22:21:57.286Z,0.00
2018-09-17T22:23:28.879Z,0.00
2018-09-17T22:25:00.418Z,0.00
2018-09-17T22:26:32.577Z,0.00
2018-09-17T22:28:06.374Z,0.00
2018-09-17T22:29:39.437Z,0.00
2018-09-17T22:31:11.704Z,0.00
2018-09-17T22:32:39.627Z,0.00
2018-09-17T22:34:12.771Z,0.00
2018-09-17T22:35:46.554Z,0.00
2018-09-17T22:37:18.167Z,0.00
2018-09-17T22:38:46.961Z,0.00
2018-09-17T22:40:18.019Z,0.00
2018-09-17T22:41:49.494Z,0.00
2018-09-17T22:43:19.523Z,0.00
2018-09-17T22:44:50.950Z,0.00
2018-09-17T22:46:25.623Z,0.00
2018-09-17T22:47:57.112Z,0.00
2018-09-17T22:49:25.815Z,0.00
2018-09-17T22:50:57.504Z,0.00
2018-09-17T22:52:31.033Z,0.00
2018-09-17T22:54:03.055Z,0.00
2018-09-17T22:55:31.796Z,0.00
2018-09-17T22:57:03.366Z,0.00
2018-09-17T22:58:34.938Z,0.00
2018-09-17T23:00:06.511Z,0.00
2018-09-17T23:01:38.083Z,0.00
2018-09-17T23:03:09.655Z,0.00
2018-09-17T23:04:41.230Z,0.00
2018-09-17T23:06:12.900Z,0.00
2018-09-17T23:07:44.372Z,0.00
2018-09-17T23:09:15.946Z,0.00
2018-09-17T23:10:47.519Z,0.00
2018-09-17T23:12:19.090Z,0.00
2018-09-17T23:13:50.663Z,0.00
2018-09-17T23:15:22.236Z,0.00
2018-09-17T23:16:53.809Z,0.00
2018-09-17T23:18:25.382Z,0.00
2018-09-17T23:19:56.955Z,0.00
2018-09-17T23:21:28.529Z,0.00
2018-09-17T23:23:00.103Z,0.00
2018-09-17T23:24:31.771Z,0.00
2018-09-17T23:26:03.244Z,0.00
2018-09-17T23:27:34.816Z,0.00
2018-09-17T23:29:06.389Z,0.00
2018-09-17T23:30:37.962Z,0.00
2018-09-17T23:32:09.535Z,0.00
2018-09-17T23:33:41.106Z,0.00
2018-09-17T23:35:12.679Z,0.00
2018-09-17T23:36:44.252Z,0.00
2018-09-17T23:38:15.825Z,0.00
2018-09-17T23:39:47.397Z,0.00
2018-09-17T23:41:18.969Z,0.00
2018-09-17T23:42:50.946Z,0.00
2018-09-17T23:44:22.115Z,0.00
2018-09-17T23:45:53.687Z,0.00
2018-09-17T23:47:25.260Z,0.00
2018-09-17T23:48:56.939Z,0.00
2018-09-17T23:50:28.405Z,0.00
2018-09-17T23:51:59.977Z,0.00
2018-09-17T23:53:31.552Z,0.00
2018-09-17T23:55:03.125Z,0.00
2018-09-17T23:56:34.696Z,0.00
2018-09-17T23:58:06.269Z,0.00
2018-09-17T23:59:37.841Z,0.00
